sensor_id;sensor_type;location;lat;lon;timestamp;temperature;humidity
27306;DHT22;14792;50.886;6.468;2023-07-28T00:01:48;17.10;99.90
27306;DHT22;14792;50.886;6.468;2023-07-28T00:04:50;17.10;99.90
27306;DHT22;14792;50.886;6.468;2023-07-28T00:07:52;17.20;99.90
27306;DHT22;14792;50.886;6.468;2023-07-28T00:10:53;17.20;99.90
27306;DHT22;14792;50.886;6.468;2023-07-28T00:13:55;17.20;99.90
27306;DHT22;14792;50.886;6.468;2023-07-28T00:16:57;17.20;99.90
27306;DHT22;14792;50.886;6.468;2023-07-28T00:19:58;17.20;99.90
27306;DHT22;14792;50.886;6.468;2023-07-28T00:22:59;17.20;99.90
27306;DHT22;14792;50.886;6.468;2023-07-28T00:26:01;17.20;99.90
27306;DHT22;14792;50.886;6.468;2023-07-28T00:29:05;17.10;99.90
27306;DHT22;14792;50.886;6.468;2023-07-28T00:32:07;17.20;99.90
27306;DHT22;14792;50.886;6.468;2023-07-28T00:35:08;17.10;99.90
27306;DHT22;14792;50.886;6.468;2023-07-28T00:38:10;17.20;99.90
27306;DHT22;14792;50.886;6.468;2023-07-28T00:41:11;17.10;99.90
27306;DHT22;14792;50.886;6.468;2023-07-28T00:44:13;17.20;99.90
27306;DHT22;14792;50.886;6.468;2023-07-28T00:47:15;17.20;99.90
27306;DHT22;14792;50.886;6.468;2023-07-28T00:50:16;17.20;99.90
27306;DHT22;14792;50.886;6.468;2023-07-28T00:53:18;17.30;99.90
27306;DHT22;14792;50.886;6.468;2023-07-28T00:56:20;17.30;99.90
27306;DHT22;14792;50.886;6.468;2023-07-28T00:59:21;17.30;99.90
27306;DHT22;14792;50.886;6.468;2023-07-28T01:02:23;17.30;99.90
27306;DHT22;14792;50.886;6.468;2023-07-28T01:05:26;17.20;99.90
27306;DHT22;14792;50.886;6.468;2023-07-28T01:08:30;17.30;99.90
27306;DHT22;14792;50.886;6.468;2023-07-28T01:11:30;17.30;99.90
27306;DHT22;14792;50.886;6.468;2023-07-28T01:14:32;17.20;99.90
27306;DHT22;14792;50.886;6.468;2023-07-28T01:17:35;17.30;99.90
27306;DHT22;14792;50.886;6.468;2023-07-28T01:20:37;17.10;99.90
27306;DHT22;14792;50.886;6.468;2023-07-28T01:23:51;17.30;99.90
27306;DHT22;14792;50.886;6.468;2023-07-28T01:26:46;17.20;99.90
27306;DHT22;14792;50.886;6.468;2023-07-28T01:29:47;17.20;99.90
27306;DHT22;14792;50.886;6.468;2023-07-28T01:32:49;17.30;99.90
27306;DHT22;14792;50.886;6.468;2023-07-28T01:35:51;17.30;99.90
27306;DHT22;14792;50.886;6.468;2023-07-28T01:38:52;17.20;99.90
27306;DHT22;14792;50.886;6.468;2023-07-28T01:41:54;17.20;99.90
27306;DHT22;14792;50.886;6.468;2023-07-28T01:44:55;17.20;99.90
27306;DHT22;14792;50.886;6.468;2023-07-28T01:47:57;17.30;99.90
27306;DHT22;14792;50.886;6.468;2023-07-28T01:50:59;17.20;99.90
27306;DHT22;14792;50.886;6.468;2023-07-28T01:54:00;17.30;99.90
27306;DHT22;14792;50.886;6.468;2023-07-28T01:57:02;17.30;99.90
27306;DHT22;14792;50.886;6.468;2023-07-28T02:00:06;17.30;99.90
27306;DHT22;14792;50.886;6.468;2023-07-28T02:03:07;17.30;99.90
27306;DHT22;14792;50.886;6.468;2023-07-28T02:06:09;17.30;99.90
27306;DHT22;14792;50.886;6.468;2023-07-28T02:09:10;17.30;99.90
27306;DHT22;14792;50.886;6.468;2023-07-28T02:12:12;17.30;99.90
27306;DHT22;14792;50.886;6.468;2023-07-28T02:15:13;17.30;99.90
27306;DHT22;14792;50.886;6.468;2023-07-28T02:18:15;17.40;99.90
27306;DHT22;14792;50.886;6.468;2023-07-28T02:21:17;17.30;99.90
27306;DHT22;14792;50.886;6.468;2023-07-28T02:24:18;17.40;99.90
27306;DHT22;14792;50.886;6.468;2023-07-28T02:27:20;17.30;99.90
27306;DHT22;14792;50.886;6.468;2023-07-28T02:30:21;17.40;99.90
27306;DHT22;14792;50.886;6.468;2023-07-28T02:33:23;17.30;99.90
27306;DHT22;14792;50.886;6.468;2023-07-28T02:36:25;17.40;99.90
27306;DHT22;14792;50.886;6.468;2023-07-28T02:39:26;17.40;99.90
27306;DHT22;14792;50.886;6.468;2023-07-28T02:42:28;17.40;99.90
27306;DHT22;14792;50.886;6.468;2023-07-28T02:45:29;17.40;99.90
27306;DHT22;14792;50.886;6.468;2023-07-28T02:48:31;17.40;99.90
27306;DHT22;14792;50.886;6.468;2023-07-28T02:51:35;17.40;99.90
27306;DHT22;14792;50.886;6.468;2023-07-28T02:54:37;17.40;99.90
27306;DHT22;14792;50.886;6.468;2023-07-28T02:57:38;17.40;99.90
27306;DHT22;14792;50.886;6.468;2023-07-28T03:00:40;17.50;99.90
27306;DHT22;14792;50.886;6.468;2023-07-28T03:03:42;17.40;99.90
27306;DHT22;14792;50.886;6.468;2023-07-28T03:06:43;17.50;99.90
27306;DHT22;14792;50.886;6.468;2023-07-28T03:09:45;17.50;99.90
27306;DHT22;14792;50.886;6.468;2023-07-28T03:12:46;17.50;99.90
27306;DHT22;14792;50.886;6.468;2023-07-28T03:15:48;17.50;99.90
27306;DHT22;14792;50.886;6.468;2023-07-28T03:18:50;17.50;99.90
27306;DHT22;14792;50.886;6.468;2023-07-28T03:21:51;17.50;99.90
27306;DHT22;14792;50.886;6.468;2023-07-28T03:24:53;17.40;99.90
27306;DHT22;14792;50.886;6.468;2023-07-28T03:27:54;17.40;99.90
27306;DHT22;14792;50.886;6.468;2023-07-28T03:30:56;17.50;99.90
27306;DHT22;14792;50.886;6.468;2023-07-28T03:33:57;17.50;99.90
27306;DHT22;14792;50.886;6.468;2023-07-28T03:36:59;17.50;99.90
27306;DHT22;14792;50.886;6.468;2023-07-28T03:40:01;17.40;99.90
27306;DHT22;14792;50.886;6.468;2023-07-28T03:43:02;17.40;99.90
27306;DHT22;14792;50.886;6.468;2023-07-28T03:46:07;17.50;99.90
27306;DHT22;14792;50.886;6.468;2023-07-28T03:49:08;17.40;99.90
27306;DHT22;14792;50.886;6.468;2023-07-28T03:52:10;17.50;99.90
27306;DHT22;14792;50.886;6.468;2023-07-28T03:55:11;17.50;99.90
27306;DHT22;14792;50.886;6.468;2023-07-28T03:58:13;17.40;99.90
27306;DHT22;14792;50.886;6.468;2023-07-28T04:01:15;17.50;99.90
27306;DHT22;14792;50.886;6.468;2023-07-28T04:04:16;17.50;99.90
27306;DHT22;14792;50.886;6.468;2023-07-28T04:07:18;17.50;99.90
27306;DHT22;14792;50.886;6.468;2023-07-28T04:10:19;17.40;99.90
27306;DHT22;14792;50.886;6.468;2023-07-28T04:13:21;17.50;99.90
27306;DHT22;14792;50.886;6.468;2023-07-28T04:16:23;17.50;99.90
27306;DHT22;14792;50.886;6.468;2023-07-28T04:19:24;17.50;99.90
27306;DHT22;14792;50.886;6.468;2023-07-28T04:22:26;17.60;99.90
27306;DHT22;14792;50.886;6.468;2023-07-28T04:25:27;17.50;99.90
27306;DHT22;14792;50.886;6.468;2023-07-28T04:28:29;17.60;99.90
27306;DHT22;14792;50.886;6.468;2023-07-28T04:31:30;17.50;99.90
27306;DHT22;14792;50.886;6.468;2023-07-28T04:34:35;17.60;99.90
27306;DHT22;14792;50.886;6.468;2023-07-28T04:37:37;17.50;99.90
27306;DHT22;14792;50.886;6.468;2023-07-28T04:40:39;17.60;99.90
27306;DHT22;14792;50.886;6.468;2023-07-28T04:43:40;17.60;99.90
27306;DHT22;14792;50.886;6.468;2023-07-28T04:46:42;17.60;99.90
27306;DHT22;14792;50.886;6.468;2023-07-28T04:49:43;17.60;99.90
27306;DHT22;14792;50.886;6.468;2023-07-28T04:52:45;17.70;99.90
27306;DHT22;14792;50.886;6.468;2023-07-28T04:55:46;17.70;99.90
27306;DHT22;14792;50.886;6.468;2023-07-28T04:58:48;17.60;99.90
27306;DHT22;14792;50.886;6.468;2023-07-28T05:01:50;17.70;99.90
27306;DHT22;14792;50.886;6.468;2023-07-28T05:04:51;17.70;99.90
27306;DHT22;14792;50.886;6.468;2023-07-28T05:07:53;17.60;99.90
27306;DHT22;14792;50.886;6.468;2023-07-28T05:10:55;17.60;99.90
27306;DHT22;14792;50.886;6.468;2023-07-28T05:13:56;17.70;99.90
27306;DHT22;14792;50.886;6.468;2023-07-28T05:16:58;17.70;99.90
27306;DHT22;14792;50.886;6.468;2023-07-28T05:19:59;17.70;99.90
27306;DHT22;14792;50.886;6.468;2023-07-28T05:23:01;17.70;99.90
27306;DHT22;14792;50.886;6.468;2023-07-28T05:26:03;17.70;99.90
27306;DHT22;14792;50.886;6.468;2023-07-28T05:29:07;17.70;99.90
27306;DHT22;14792;50.886;6.468;2023-07-28T05:32:09;17.80;99.90
27306;DHT22;14792;50.886;6.468;2023-07-28T05:35:10;17.80;99.90
27306;DHT22;14792;50.886;6.468;2023-07-28T05:38:12;17.90;99.90
27306;DHT22;14792;50.886;6.468;2023-07-28T05:41:13;17.80;99.90
27306;DHT22;14792;50.886;6.468;2023-07-28T05:44:15;17.90;99.90
27306;DHT22;14792;50.886;6.468;2023-07-28T05:47:16;17.80;99.90
27306;DHT22;14792;50.886;6.468;2023-07-28T05:50:18;17.80;99.90
27306;DHT22;14792;50.886;6.468;2023-07-28T05:53:20;17.90;99.90
27306;DHT22;14792;50.886;6.468;2023-07-28T05:56:22;17.90;99.90
27306;DHT22;14792;50.886;6.468;2023-07-28T05:59:23;17.90;99.90
27306;DHT22;14792;50.886;6.468;2023-07-28T06:02:25;18.00;99.90
27306;DHT22;14792;50.886;6.468;2023-07-28T06:05:26;18.00;99.90
27306;DHT22;14792;50.886;6.468;2023-07-28T06:08:28;18.00;99.90
27306;DHT22;14792;50.886;6.468;2023-07-28T06:11:29;18.00;99.90
27306;DHT22;14792;50.886;6.468;2023-07-28T06:14:31;18.00;99.90
27306;DHT22;14792;50.886;6.468;2023-07-28T06:17:34;18.00;99.90
27306;DHT22;14792;50.886;6.468;2023-07-28T06:20:37;18.00;99.90
27306;DHT22;14792;50.886;6.468;2023-07-28T06:23:38;18.10;99.90
27306;DHT22;14792;50.886;6.468;2023-07-28T06:26:40;18.10;99.90
27306;DHT22;14792;50.886;6.468;2023-07-28T06:29:41;18.10;99.90
27306;DHT22;14792;50.886;6.468;2023-07-28T06:32:43;18.20;99.90
27306;DHT22;14792;50.886;6.468;2023-07-28T06:35:45;18.20;99.90
27306;DHT22;14792;50.886;6.468;2023-07-28T06:38:46;18.20;99.90
27306;DHT22;14792;50.886;6.468;2023-07-28T06:41:48;18.20;99.90
27306;DHT22;14792;50.886;6.468;2023-07-28T06:44:50;18.30;99.90
27306;DHT22;14792;50.886;6.468;2023-07-28T06:47:51;18.40;99.90
27306;DHT22;14792;50.886;6.468;2023-07-28T06:50:52;18.40;99.90
27306;DHT22;14792;50.886;6.468;2023-07-28T06:53:54;18.40;99.90
27306;DHT22;14792;50.886;6.468;2023-07-28T06:56:56;18.40;99.90
27306;DHT22;14792;50.886;6.468;2023-07-28T06:59:57;18.50;99.90
27306;DHT22;14792;50.886;6.468;2023-07-28T07:02:59;18.50;99.90
27306;DHT22;14792;50.886;6.468;2023-07-28T07:06:00;18.60;99.90
27306;DHT22;14792;50.886;6.468;2023-07-28T07:09:02;18.60;99.90
27306;DHT22;14792;50.886;6.468;2023-07-28T07:12:06;18.70;99.90
27306;DHT22;14792;50.886;6.468;2023-07-28T07:15:07;18.80;99.90
27306;DHT22;14792;50.886;6.468;2023-07-28T07:18:09;18.80;99.90
27306;DHT22;14792;50.886;6.468;2023-07-28T07:21:10;18.80;99.90
27306;DHT22;14792;50.886;6.468;2023-07-28T07:24:12;18.90;99.90
27306;DHT22;14792;50.886;6.468;2023-07-28T07:27:16;19.00;99.90
27306;DHT22;14792;50.886;6.468;2023-07-28T07:30:18;19.00;99.90
27306;DHT22;14792;50.886;6.468;2023-07-28T07:33:20;19.10;99.90
27306;DHT22;14792;50.886;6.468;2023-07-28T07:36:21;19.30;99.90
27306;DHT22;14792;50.886;6.468;2023-07-28T07:39:23;19.40;99.90
27306;DHT22;14792;50.886;6.468;2023-07-28T07:42:24;19.60;99.90
27306;DHT22;14792;50.886;6.468;2023-07-28T07:45:26;19.60;99.90
27306;DHT22;14792;50.886;6.468;2023-07-28T07:48:27;19.70;99.90
27306;DHT22;14792;50.886;6.468;2023-07-28T07:51:29;19.90;99.90
27306;DHT22;14792;50.886;6.468;2023-07-28T07:54:31;20.10;99.90
27306;DHT22;14792;50.886;6.468;2023-07-28T07:57:32;20.20;99.90
27306;DHT22;14792;50.886;6.468;2023-07-28T08:00:40;20.10;99.90
27306;DHT22;14792;50.886;6.468;2023-07-28T08:03:38;20.30;99.90
27306;DHT22;14792;50.886;6.468;2023-07-28T08:06:39;20.50;99.90
27306;DHT22;14792;50.886;6.468;2023-07-28T08:09:41;20.60;99.90
27306;DHT22;14792;50.886;6.468;2023-07-28T08:12:43;21.00;99.90
27306;DHT22;14792;50.886;6.468;2023-07-28T08:15:44;21.10;99.90
27306;DHT22;14792;50.886;6.468;2023-07-28T08:18:46;21.20;99.90
27306;DHT22;14792;50.886;6.468;2023-07-28T08:21:47;21.30;99.90
27306;DHT22;14792;50.886;6.468;2023-07-28T08:24:49;21.40;99.90
27306;DHT22;14792;50.886;6.468;2023-07-28T08:27:50;21.50;99.90
27306;DHT22;14792;50.886;6.468;2023-07-28T08:30:55;21.70;99.90
27306;DHT22;14792;50.886;6.468;2023-07-28T08:33:56;22.00;99.90
27306;DHT22;14792;50.886;6.468;2023-07-28T08:36:58;22.00;99.90
27306;DHT22;14792;50.886;6.468;2023-07-28T08:39:59;22.70;99.90
27306;DHT22;14792;50.886;6.468;2023-07-28T08:43:01;22.60;99.90
27306;DHT22;14792;50.886;6.468;2023-07-28T08:46:05;22.70;99.90
27306;DHT22;14792;50.886;6.468;2023-07-28T08:49:07;22.60;99.90
27306;DHT22;14792;50.886;6.468;2023-07-28T08:52:09;22.70;99.90
27306;DHT22;14792;50.886;6.468;2023-07-28T08:55:10;22.70;99.90
27306;DHT22;14792;50.886;6.468;2023-07-28T08:58:18;22.80;99.90
27306;DHT22;14792;50.886;6.468;2023-07-28T09:01:22;23.10;99.90
27306;DHT22;14792;50.886;6.468;2023-07-28T09:04:21;22.90;99.90
27306;DHT22;14792;50.886;6.468;2023-07-28T09:07:22;22.80;99.90
27306;DHT22;14792;50.886;6.468;2023-07-28T09:10:24;22.90;99.90
27306;DHT22;14792;50.886;6.468;2023-07-28T09:13:27;23.00;99.90
27306;DHT22;14792;50.886;6.468;2023-07-28T09:16:27;23.10;99.90
27306;DHT22;14792;50.886;6.468;2023-07-28T09:19:29;22.90;99.90
27306;DHT22;14792;50.886;6.468;2023-07-28T09:22:30;22.70;99.90
27306;DHT22;14792;50.886;6.468;2023-07-28T09:25:32;22.40;99.90
27306;DHT22;14792;50.886;6.468;2023-07-28T09:28:40;22.60;99.90
27306;DHT22;14792;50.886;6.468;2023-07-28T09:31:42;22.50;99.90
27306;DHT22;14792;50.886;6.468;2023-07-28T09:34:43;22.30;99.90
27306;DHT22;14792;50.886;6.468;2023-07-28T09:37:45;22.00;99.90
27306;DHT22;14792;50.886;6.468;2023-07-28T09:40:46;21.70;99.90
27306;DHT22;14792;50.886;6.468;2023-07-28T09:43:47;21.50;99.90
27306;DHT22;14792;50.886;6.468;2023-07-28T09:46:56;21.70;99.90
27306;DHT22;14792;50.886;6.468;2023-07-28T09:49:53;22.10;99.90
27306;DHT22;14792;50.886;6.468;2023-07-28T09:52:56;22.70;99.90
27306;DHT22;14792;50.886;6.468;2023-07-28T09:55:57;22.90;99.90
27306;DHT22;14792;50.886;6.468;2023-07-28T09:58:59;23.00;99.90
27306;DHT22;14792;50.886;6.468;2023-07-28T10:02:01;23.40;99.90
27306;DHT22;14792;50.886;6.468;2023-07-28T10:05:04;23.30;99.90
27306;DHT22;14792;50.886;6.468;2023-07-28T10:08:08;23.50;99.90
27306;DHT22;14792;50.886;6.468;2023-07-28T10:11:12;23.60;99.90
27306;DHT22;14792;50.886;6.468;2023-07-28T10:14:11;23.80;99.90
27306;DHT22;14792;50.886;6.468;2023-07-28T10:17:15;24.10;99.90
27306;DHT22;14792;50.886;6.468;2023-07-28T10:20:33;24.00;99.90
27306;DHT22;14792;50.886;6.468;2023-07-28T10:23:35;23.70;99.90
27306;DHT22;14792;50.886;6.468;2023-07-28T10:26:40;23.80;99.90
27306;DHT22;14792;50.886;6.468;2023-07-28T10:29:55;24.30;99.90
27306;DHT22;14792;50.886;6.468;2023-07-28T10:32:48;24.60;99.90
27306;DHT22;14792;50.886;6.468;2023-07-28T10:35:47;23.90;99.90
27306;DHT22;14792;50.886;6.468;2023-07-28T10:39:02;23.70;99.90
27306;DHT22;14792;50.886;6.468;2023-07-28T10:42:06;24.10;99.90
27306;DHT22;14792;50.886;6.468;2023-07-28T10:45:08;24.10;99.90
27306;DHT22;14792;50.886;6.468;2023-07-28T10:48:09;24.00;99.90
27306;DHT22;14792;50.886;6.468;2023-07-28T10:51:11;24.10;99.90
27306;DHT22;14792;50.886;6.468;2023-07-28T10:54:12;24.20;99.90
27306;DHT22;14792;50.886;6.468;2023-07-28T10:57:16;24.20;99.90
27306;DHT22;14792;50.886;6.468;2023-07-28T11:00:19;24.20;99.90
27306;DHT22;14792;50.886;6.468;2023-07-28T11:03:20;24.00;99.90
27306;DHT22;14792;50.886;6.468;2023-07-28T11:06:21;24.40;99.90
27306;DHT22;14792;50.886;6.468;2023-07-28T11:09:23;24.60;99.90
27306;DHT22;14792;50.886;6.468;2023-07-28T11:12:24;25.00;99.90
27306;DHT22;14792;50.886;6.468;2023-07-28T11:15:26;24.40;99.90
27306;DHT22;14792;50.886;6.468;2023-07-28T11:18:28;24.20;99.90
27306;DHT22;14792;50.886;6.468;2023-07-28T11:21:29;24.10;99.90
27306;DHT22;14792;50.886;6.468;2023-07-28T11:24:31;24.40;99.90
27306;DHT22;14792;50.886;6.468;2023-07-28T11:27:32;24.40;99.90
27306;DHT22;14792;50.886;6.468;2023-07-28T11:30:36;24.30;99.90
27306;DHT22;14792;50.886;6.468;2023-07-28T11:33:37;24.60;99.90
27306;DHT22;14792;50.886;6.468;2023-07-28T11:36:39;24.60;99.90
27306;DHT22;14792;50.886;6.468;2023-07-28T11:39:41;24.60;99.90
27306;DHT22;14792;50.886;6.468;2023-07-28T11:42:51;24.70;99.90
27306;DHT22;14792;50.886;6.468;2023-07-28T11:45:49;24.80;99.90
27306;DHT22;14792;50.886;6.468;2023-07-28T11:48:51;24.60;99.90
27306;DHT22;14792;50.886;6.468;2023-07-28T11:51:53;24.60;99.90
27306;DHT22;14792;50.886;6.468;2023-07-28T11:54:54;24.50;99.90
27306;DHT22;14792;50.886;6.468;2023-07-28T11:57:56;24.50;99.90
27306;DHT22;14792;50.886;6.468;2023-07-28T12:00:57;24.10;99.90
27306;DHT22;14792;50.886;6.468;2023-07-28T12:03:59;24.20;99.90
27306;DHT22;14792;50.886;6.468;2023-07-28T12:07:13;24.10;99.90
27306;DHT22;14792;50.886;6.468;2023-07-28T12:10:14;23.70;99.90
27306;DHT22;14792;50.886;6.468;2023-07-28T12:13:15;23.40;99.90
27306;DHT22;14792;50.886;6.468;2023-07-28T12:22:57;23.50;99.90
27306;DHT22;14792;50.886;6.468;2023-07-28T12:25:59;23.70;99.90
27306;DHT22;14792;50.886;6.468;2023-07-28T12:29:01;24.00;99.90
27306;DHT22;14792;50.886;6.468;2023-07-28T12:32:02;24.00;99.90
27306;DHT22;14792;50.886;6.468;2023-07-28T12:35:06;24.00;99.90
27306;DHT22;14792;50.886;6.468;2023-07-28T12:38:07;24.40;99.90
27306;DHT22;14792;50.886;6.468;2023-07-28T12:41:09;24.60;99.90
27306;DHT22;14792;50.886;6.468;2023-07-28T12:44:10;24.60;99.90
27306;DHT22;14792;50.886;6.468;2023-07-28T12:47:12;24.30;99.90
27306;DHT22;14792;50.886;6.468;2023-07-28T12:50:14;24.30;99.90
27306;DHT22;14792;50.886;6.468;2023-07-28T12:53:15;24.60;99.90
27306;DHT22;14792;50.886;6.468;2023-07-28T12:56:17;24.60;99.90
27306;DHT22;14792;50.886;6.468;2023-07-28T12:59:18;24.40;99.90
27306;DHT22;14792;50.886;6.468;2023-07-28T13:02:20;24.10;99.90
27306;DHT22;14792;50.886;6.468;2023-07-28T13:05:21;24.40;99.90
27306;DHT22;14792;50.886;6.468;2023-07-28T13:08:23;23.90;99.90
27306;DHT22;14792;50.886;6.468;2023-07-28T13:11:25;23.80;99.90
27306;DHT22;14792;50.886;6.468;2023-07-28T13:14:26;23.90;99.90
27306;DHT22;14792;50.886;6.468;2023-07-28T13:17:28;23.90;99.90
27306;DHT22;14792;50.886;6.468;2023-07-28T13:20:29;23.80;99.90
27306;DHT22;14792;50.886;6.468;2023-07-28T13:23:31;23.90;99.90
27306;DHT22;14792;50.886;6.468;2023-07-28T13:26:33;24.30;99.90
27306;DHT22;14792;50.886;6.468;2023-07-28T13:29:36;24.60;99.90
27306;DHT22;14792;50.886;6.468;2023-07-28T13:32:38;25.00;99.90
27306;DHT22;14792;50.886;6.468;2023-07-28T13:35:39;25.00;99.90
27306;DHT22;14792;50.886;6.468;2023-07-28T13:38:41;25.20;99.90
27306;DHT22;14792;50.886;6.468;2023-07-28T13:41:42;24.90;99.90
27306;DHT22;14792;50.886;6.468;2023-07-28T13:44:44;25.10;99.90
27306;DHT22;14792;50.886;6.468;2023-07-28T13:47:46;25.20;99.90
27306;DHT22;14792;50.886;6.468;2023-07-28T13:50:47;25.10;99.90
27306;DHT22;14792;50.886;6.468;2023-07-28T13:53:49;24.70;99.90
27306;DHT22;14792;50.886;6.468;2023-07-28T13:56:50;24.60;99.90
27306;DHT22;14792;50.886;6.468;2023-07-28T13:59:52;24.70;99.90
27306;DHT22;14792;50.886;6.468;2023-07-28T14:02:54;24.60;99.90
27306;DHT22;14792;50.886;6.468;2023-07-28T14:05:55;24.60;99.90
27306;DHT22;14792;50.886;6.468;2023-07-28T14:08:57;24.70;99.90
27306;DHT22;14792;50.886;6.468;2023-07-28T14:11:58;24.70;99.90
27306;DHT22;14792;50.886;6.468;2023-07-28T14:15:00;24.90;99.90
27306;DHT22;14792;50.886;6.468;2023-07-28T14:18:01;24.80;99.90
27306;DHT22;14792;50.886;6.468;2023-07-28T14:21:03;24.90;99.90
27306;DHT22;14792;50.886;6.468;2023-07-28T14:24:07;24.60;99.90
27306;DHT22;14792;50.886;6.468;2023-07-28T14:27:08;24.30;99.90
27306;DHT22;14792;50.886;6.468;2023-07-28T14:30:10;24.70;99.90
27306;DHT22;14792;50.886;6.468;2023-07-28T14:33:15;25.30;99.90
27306;DHT22;14792;50.886;6.468;2023-07-28T14:36:16;25.50;99.90
27306;DHT22;14792;50.886;6.468;2023-07-28T14:39:37;25.30;99.90
27306;DHT22;14792;50.886;6.468;2023-07-28T14:42:39;25.00;99.90
27306;DHT22;14792;50.886;6.468;2023-07-28T14:45:40;24.90;99.90
27306;DHT22;14792;50.886;6.468;2023-07-28T14:48:42;25.20;99.90
27306;DHT22;14792;50.886;6.468;2023-07-28T14:51:44;24.90;99.90
27306;DHT22;14792;50.886;6.468;2023-07-28T14:54:45;25.10;99.90
27306;DHT22;14792;50.886;6.468;2023-07-28T14:57:47;24.90;99.90
27306;DHT22;14792;50.886;6.468;2023-07-28T15:00:48;25.00;99.90
27306;DHT22;14792;50.886;6.468;2023-07-28T15:03:50;24.20;99.90
27306;DHT22;14792;50.886;6.468;2023-07-28T15:06:51;23.00;99.90
27306;DHT22;14792;50.886;6.468;2023-07-28T15:09:53;22.40;99.90
27306;DHT22;14792;50.886;6.468;2023-07-28T15:12:55;22.40;99.90
27306;DHT22;14792;50.886;6.468;2023-07-28T15:15:56;22.40;99.90
27306;DHT22;14792;50.886;6.468;2023-07-28T15:18:58;22.80;99.90
27306;DHT22;14792;50.886;6.468;2023-07-28T15:22:00;23.30;99.90
27306;DHT22;14792;50.886;6.468;2023-07-28T15:25:01;23.40;99.90
27306;DHT22;14792;50.886;6.468;2023-07-28T15:28:03;23.40;99.90
27306;DHT22;14792;50.886;6.468;2023-07-28T15:31:06;24.00;99.90
27306;DHT22;14792;50.886;6.468;2023-07-28T15:34:08;23.90;99.90
27306;DHT22;14792;50.886;6.468;2023-07-28T15:37:10;23.70;99.90
27306;DHT22;14792;50.886;6.468;2023-07-28T15:40:11;23.80;99.90
27306;DHT22;14792;50.886;6.468;2023-07-28T15:43:13;23.90;99.90
27306;DHT22;14792;50.886;6.468;2023-07-28T15:46:14;24.00;99.90
27306;DHT22;14792;50.886;6.468;2023-07-28T15:49:16;24.10;99.90
27306;DHT22;14792;50.886;6.468;2023-07-28T15:52:18;24.00;99.90
27306;DHT22;14792;50.886;6.468;2023-07-28T15:55:19;23.80;99.90
27306;DHT22;14792;50.886;6.468;2023-07-28T15:58:21;23.90;99.90
27306;DHT22;14792;50.886;6.468;2023-07-28T16:01:22;24.30;99.90
27306;DHT22;14792;50.886;6.468;2023-07-28T16:04:24;24.80;99.90
27306;DHT22;14792;50.886;6.468;2023-07-28T16:07:25;24.60;99.90
27306;DHT22;14792;50.886;6.468;2023-07-28T16:10:27;24.40;99.90
27306;DHT22;14792;50.886;6.468;2023-07-28T16:13:29;24.60;99.90
27306;DHT22;14792;50.886;6.468;2023-07-28T16:16:30;24.90;99.90
27306;DHT22;14792;50.886;6.468;2023-07-28T16:19:32;24.40;99.90
27306;DHT22;14792;50.886;6.468;2023-07-28T16:22:37;24.60;99.90
27306;DHT22;14792;50.886;6.468;2023-07-28T16:25:37;24.70;99.90
27306;DHT22;14792;50.886;6.468;2023-07-28T16:28:38;24.40;99.90
27306;DHT22;14792;50.886;6.468;2023-07-28T16:31:40;24.50;99.90
27306;DHT22;14792;50.886;6.468;2023-07-28T16:34:41;24.30;99.90
27306;DHT22;14792;50.886;6.468;2023-07-28T16:37:43;24.60;99.90
27306;DHT22;14792;50.886;6.468;2023-07-28T16:40:44;25.10;99.90
27306;DHT22;14792;50.886;6.468;2023-07-28T16:43:46;25.10;99.90
27306;DHT22;14792;50.886;6.468;2023-07-28T16:46:48;25.00;99.90
27306;DHT22;14792;50.886;6.468;2023-07-28T16:49:49;25.00;99.90
27306;DHT22;14792;50.886;6.468;2023-07-28T16:52:51;25.10;99.90
27306;DHT22;14792;50.886;6.468;2023-07-28T16:55:52;25.20;99.90
27306;DHT22;14792;50.886;6.468;2023-07-28T16:58:54;25.40;99.90
27306;DHT22;14792;50.886;6.468;2023-07-28T17:01:56;25.20;99.90
27306;DHT22;14792;50.886;6.468;2023-07-28T17:04:57;24.90;99.90
27306;DHT22;14792;50.886;6.468;2023-07-28T17:07:59;24.70;99.90
27306;DHT22;14792;50.886;6.468;2023-07-28T17:11:01;24.90;99.90
27306;DHT22;14792;50.886;6.468;2023-07-28T17:14:02;24.90;99.90
27306;DHT22;14792;50.886;6.468;2023-07-28T17:17:06;24.80;99.90
27306;DHT22;14792;50.886;6.468;2023-07-28T17:20:08;25.00;99.90
27306;DHT22;14792;50.886;6.468;2023-07-28T17:23:09;24.80;99.90
27306;DHT22;14792;50.886;6.468;2023-07-28T17:26:11;24.70;99.90
27306;DHT22;14792;50.886;6.468;2023-07-28T17:29:13;24.80;99.90
27306;DHT22;14792;50.886;6.468;2023-07-28T17:32:14;24.90;99.90
27306;DHT22;14792;50.886;6.468;2023-07-28T17:35:16;24.80;99.90
27306;DHT22;14792;50.886;6.468;2023-07-28T17:38:17;24.60;99.90
27306;DHT22;14792;50.886;6.468;2023-07-28T17:41:19;24.60;99.90
27306;DHT22;14792;50.886;6.468;2023-07-28T17:44:20;24.40;99.90
27306;DHT22;14792;50.886;6.468;2023-07-28T17:47:22;24.40;99.90
27306;DHT22;14792;50.886;6.468;2023-07-28T17:50:24;24.40;99.90
27306;DHT22;14792;50.886;6.468;2023-07-28T17:53:25;24.30;99.90
27306;DHT22;14792;50.886;6.468;2023-07-28T17:56:27;24.30;99.90
27306;DHT22;14792;50.886;6.468;2023-07-28T17:59:28;24.20;99.90
27306;DHT22;14792;50.886;6.468;2023-07-28T18:02:30;24.00;99.90
27306;DHT22;14792;50.886;6.468;2023-07-28T18:05:32;24.10;99.90
27306;DHT22;14792;50.886;6.468;2023-07-28T18:08:33;24.00;99.90
27306;DHT22;14792;50.886;6.468;2023-07-28T18:11:37;24.00;99.90
27306;DHT22;14792;50.886;6.468;2023-07-28T18:14:39;24.00;99.90
27306;DHT22;14792;50.886;6.468;2023-07-28T18:17:40;23.90;99.90
27306;DHT22;14792;50.886;6.468;2023-07-28T18:20:42;23.90;99.90
27306;DHT22;14792;50.886;6.468;2023-07-28T18:23:43;23.80;99.90
27306;DHT22;14792;50.886;6.468;2023-07-28T18:26:45;24.00;99.90
27306;DHT22;14792;50.886;6.468;2023-07-28T18:29:47;24.00;99.90
27306;DHT22;14792;50.886;6.468;2023-07-28T18:32:48;23.80;99.90
27306;DHT22;14792;50.886;6.468;2023-07-28T18:35:50;23.50;99.90
27306;DHT22;14792;50.886;6.468;2023-07-28T18:38:51;23.50;99.90
27306;DHT22;14792;50.886;6.468;2023-07-28T18:41:53;23.40;99.90
27306;DHT22;14792;50.886;6.468;2023-07-28T18:44:54;23.50;99.90
27306;DHT22;14792;50.886;6.468;2023-07-28T18:47:56;23.30;99.90
27306;DHT22;14792;50.886;6.468;2023-07-28T18:50:58;23.10;99.90
27306;DHT22;14792;50.886;6.468;2023-07-28T18:53:59;23.00;99.90
27306;DHT22;14792;50.886;6.468;2023-07-28T18:57:01;23.00;99.90
27306;DHT22;14792;50.886;6.468;2023-07-28T19:00:03;22.90;99.90
27306;DHT22;14792;50.886;6.468;2023-07-28T19:03:08;22.90;99.90
27306;DHT22;14792;50.886;6.468;2023-07-28T19:06:09;22.90;99.90
27306;DHT22;14792;50.886;6.468;2023-07-28T19:09:11;22.80;99.90
27306;DHT22;14792;50.886;6.468;2023-07-28T19:12:12;22.70;99.90
27306;DHT22;14792;50.886;6.468;2023-07-28T19:15:14;22.60;99.90